| time (UTC) | temp C | wind direction | speed KPH | gust KPH | rain 1hr cm | rain 24hr cm | rain mn cm | humidity % | barometer mb |
| 20260503034139 | 22 | 251 | 0.0 | 1.6 | 0.00 | 0.36 | 0.36 | 89 | 1016.2 |
| 20260503033636 | 22 | 221 | 0.0 | 6.4 | 0.00 | 0.36 | 0.36 | 88 | 1015.8 |
| 20260503033134 | 22 | 207 | 1.6 | 4.8 | 0.00 | 0.36 | 0.36 | 90 | 1015.4 |
| 20260503032632 | 22 | 180 | 4.8 | 6.4 | 0.00 | 0.36 | 0.36 | 90 | 1015.1 |
| 20260503032131 | 22 | 178 | 3.2 | 6.4 | 0.00 | 0.36 | 0.36 | 89 | 1015.0 |
| 20260503031628 | 22 | 247 | 0.0 | 0.0 | 0.00 | 0.36 | 0.36 | 88 | 1014.8 |
| 20260503031125 | 22 | 270 | 0.0 | 0.0 | 0.00 | 0.36 | 0.36 | 88 | 1014.8 |
| 20260503030621 | 22 | 266 | 1.6 | 3.2 | 0.00 | 0.36 | 0.36 | 89 | 1014.8 |
| 20260503030118 | 22 | 272 | 0.0 | 3.2 | 0.00 | 0.36 | 0.36 | 89 | 1015.0 |
| 20260503025614 | 22 | 270 | 0.0 | 0.0 | 0.00 | 0.36 | 0.36 | 90 | 1014.9 |
| 20260503025113 | 22 | 268 | 1.6 | 3.2 | 0.00 | 0.36 | 0.36 | 89 | 1014.9 |
| 20260503024609 | 22 | 270 | 1.6 | 3.2 | 0.00 | 0.36 | 0.36 | 88 | 1014.2 |
| 20260503024106 | 22 | 160 | 6.4 | 11.3 | 0.00 | 0.36 | 0.36 | 89 | 1013.9 |
| 20260503023603 | 22 | 157 | 4.8 | 9.7 | 0.00 | 0.36 | 0.36 | 88 | 1013.8 |
| 20260503023100 | 22 | 132 | 4.8 | 6.4 | 0.00 | 0.36 | 0.36 | 88 | 1014.0 |
| 20260503022555 | 23 | 109 | 3.2 | 4.8 | 1.52 | 0.33 | 0.33 | 89 | 1014.1 |
| 20260503022050 | 23 | 176 | 3.2 | 4.8 | 0.00 | 0.33 | 0.33 | 89 | 1014.5 |
| 20260503021548 | 23 | 155 | 1.6 | 3.2 | 0.00 | 0.33 | 0.33 | 88 | 1014.7 |
| 20260503021044 | 23 | 182 | 3.2 | 4.8 | 0.00 | 0.33 | 0.33 | 89 | 1014.8 |
| 20260503020542 | 23 | 118 | 3.2 | 4.8 | 0.00 | 0.33 | 0.33 | 90 | 1014.4 |
| 20260503020038 | 23 | 247 | 0.0 | 0.0 | 0.00 | 0.33 | 0.33 | 90 | 1014.8 |
| 20260503015535 | 23 | 168 | 4.8 | 9.7 | 0.00 | 0.33 | 0.33 | 89 | 1014.7 |
| 20260503015033 | 23 | 161 | 11.3 | 17.7 | 0.00 | 0.33 | 0.33 | 90 | 1014.5 |
| 20260503014528 | 23 | 172 | 8.0 | 11.3 | 0.00 | 0.33 | 0.33 | 91 | 1014.3 |
| 20260503014026 | 23 | 187 | 8.0 | 12.9 | 0.00 | 0.33 | 0.33 | 90 | 1014.5 |
| 20260503013523 | 23 | 188 | 8.0 | 12.9 | 0.00 | 0.33 | 0.33 | 91 | 1014.1 |
| 20260503013021 | 23 | 195 | 6.4 | 8.0 | 0.00 | 0.33 | 0.33 | 90 | 1014.2 |
| 20260503012519 | 23 | 163 | 4.8 | 8.0 | 0.00 | 0.33 | 0.33 | 91 | 1014.5 |
| 20260503012014 | 23 | 143 | 3.2 | 4.8 | 0.00 | 0.30 | 0.30 | 91 | 1014.2 |
| 20260503011511 | 23 | 154 | 4.8 | 9.7 | 0.00 | 0.30 | 0.30 | 90 | 1014.1 |
| 20260503011009 | 23 | 171 | 6.4 | 12.9 | 0.00 | 0.30 | 0.30 | 90 | 1014.3 |
| 20260503010505 | 23 | 158 | 4.8 | 6.4 | 0.00 | 0.30 | 0.30 | 89 | 1014.3 |
| 20260503010003 | 23 | 171 | 3.2 | 4.8 | 0.00 | 0.30 | 0.30 | 90 | 1014.3 |
| 20260503005459 | 23 | 164 | 3.2 | 4.8 | 0.00 | 0.30 | 0.30 | 90 | 1014.3 |
| 20260503004956 | 23 | 129 | 0.0 | 3.2 | 0.00 | 0.30 | 0.30 | 90 | 1014.2 |
| 20260503004453 | 23 | 135 | 4.8 | 6.4 | 0.00 | 0.30 | 0.30 | 90 | 1014.0 |
| 20260503003951 | 23 | 173 | 1.6 | 3.2 | 0.00 | 0.30 | 0.30 | 90 | 1014.0 |
| 20260503003447 | 23 | 45 | 0.0 | 0.0 | 0.00 | 0.30 | 0.30 | 89 | 1014.1 |
| 20260503002944 | 23 | 112 | 1.6 | 3.2 | 0.00 | 0.30 | 0.30 | 89 | 1014.0 |
| 20260503002441 | 23 | 135 | 0.0 | 0.0 | 0.00 | 0.30 | 0.30 | 89 | 1013.9 |
| 20260503001937 | 23 | 149 | 3.2 | 6.4 | 0.00 | 0.30 | 0.30 | 89 | 1014.0 |
| 20260503001434 | 23 | 120 | 3.2 | 4.8 | 0.00 | 0.30 | 0.30 | 88 | 1013.9 |
| 20260503000932 | 23 | 360 | 0.0 | 0.0 | 0.00 | 0.30 | 0.30 | 88 | 1013.8 |
| 20260503000430 | 23 | 360 | 0.0 | 0.0 | 0.00 | 0.30 | 0.30 | 87 | 1013.6 |
| 20260502235926 | 23 | 360 | 0.0 | 0.0 | 0.00 | 0.30 | 0.30 | 87 | 1013.8 |
| 20260502235423 | 23 | 315 | 0.0 | 0.0 | 0.00 | 0.30 | 0.30 | 87 | 1014.0 |
| 20260502234920 | 23 | 315 | 0.0 | 0.0 | 0.00 | 0.30 | 0.30 | 88 | 1013.8 |
| 20260502234417 | 23 | 315 | 0.0 | 0.0 | 0.00 | 0.30 | 0.30 | 87 | 1013.6 |
| 20260502233914 | 23 | 315 | 0.0 | 0.0 | 0.00 | 0.30 | 0.30 | 87 | 1013.6 |
| 20260502233409 | 23 | 19 | 3.2 | 4.8 | 0.00 | 0.30 | 0.30 | 88 | 1013.6 |
| 20260502232907 | 23 | 360 | 0.0 | 0.0 | 0.00 | 0.28 | 0.28 | 88 | 1014.0 |
| 20260502232403 | 23 | 315 | 0.0 | 0.0 | 0.00 | 0.28 | 0.28 | 88 | 1014.1 |
| 20260502231859 | 23 | 294 | 1.6 | 3.2 | 0.00 | 0.28 | 0.28 | 87 | 1014.1 |
| 20260502231357 | 23 | 319 | 1.6 | 3.2 | 0.00 | 0.28 | 0.28 | 87 | 1014.2 |
| 20260502230855 | 23 | 283 | 3.2 | 9.7 | 0.00 | 0.28 | 0.28 | 88 | 1014.3 |
| 20260502230353 | 23 | 273 | 0.0 | 3.2 | 0.00 | 0.28 | 0.28 | 88 | 1014.1 |
| 20260502225850 | 23 | 290 | 0.0 | 1.6 | 0.00 | 0.28 | 0.28 | 87 | 1014.0 |
| 20260502225346 | 23 | 297 | 3.2 | 6.4 | 0.00 | 0.28 | 0.28 | 88 | 1014.0 |
| 20260502224843 | 23 | 306 | 0.0 | 4.8 | 0.00 | 0.28 | 0.28 | 86 | 1013.7 |
| 20260502224339 | 23 | 334 | 1.6 | 4.8 | 0.00 | 0.28 | 0.28 | 87 | 1013.6 |
| 20260502223837 | 23 | 298 | 4.8 | 12.9 | 0.00 | 0.28 | 0.28 | 86 | 1013.6 |
| 20260502223335 | 23 | 294 | 3.2 | 9.7 | 0.00 | 0.28 | 0.28 | 85 | 1013.6 |
| 20260502222832 | 24 | 285 | 4.8 | 14.5 | 0.00 | 0.28 | 0.28 | 83 | 1013.4 |
| 20260502222330 | 25 | 273 | 1.6 | 3.2 | 0.00 | 0.28 | 0.28 | 81 | 1013.4 |
| 20260502221825 | 26 | 288 | 3.2 | 8.0 | 1.52 | 0.25 | 0.25 | 78 | 1013.1 |
| 20260502221322 | 27 | 318 | 4.8 | 9.7 | 3.05 | 0.00 | 0.00 | 78 | 1013.0 |
| 20260502220819 | 27 | 252 | 4.8 | 9.7 | 0.00 | 0.00 | 0.00 | 79 | 1012.6 |
| 20260502220314 | 27 | 231 | 9.7 | 16.1 | 0.00 | 0.00 | 0.00 | 79 | 1012.5 |
| 20260502215811 | 27 | 209 | 6.4 | 11.3 | 0.00 | 0.00 | 0.00 | 78 | 1012.5 |
| 20260502215309 | 27 | 232 | 8.0 | 12.9 | 0.00 | 0.00 | 0.00 | 78 | 1012.5 |
| 20260502214806 | 27 | 238 | 8.0 | 17.7 | 0.00 | 0.00 | 0.00 | 77 | 1012.5 |
| 20260502214302 | 27 | 247 | 6.4 | 9.7 | 0.00 | 0.00 | 0.00 | 78 | 1012.7 |
| 20260502213800 | 27 | 237 | 6.4 | 12.9 | 0.00 | 0.00 | 0.00 | 77 | 1012.7 |
| 20260502213257 | 28 | 265 | 4.8 | 11.3 | 0.00 | 0.00 | 0.00 | 77 | 1012.7 |
| 20260502212755 | 28 | 247 | 8.0 | 17.7 | 0.00 | 0.00 | 0.00 | 76 | 1012.6 |
| 20260502212253 | 28 | 221 | 4.8 | 8.0 | 0.00 | 0.00 | 0.00 | 75 | 1012.6 |
| 20260502211749 | 28 | 264 | 3.2 | 6.4 | 0.00 | 0.00 | 0.00 | 75 | 1012.4 |
| 20260502211246 | 28 | 241 | 6.4 | 12.9 | 0.00 | 0.00 | 0.00 | 74 | 1012.5 |
| 20260502210743 | 28 | 249 | 8.0 | 12.9 | 0.00 | 0.00 | 0.00 | 72 | 1012.3 |
| 20260502210241 | 28 | 247 | 9.7 | 14.5 | 0.00 | 0.00 | 0.00 | 72 | 1012.2 |
| 20260502205738 | 29 | 246 | 4.8 | 9.7 | 0.00 | 0.00 | 0.00 | 71 | 1012.2 |
| 20260502205234 | 30 | 233 | 6.4 | 12.9 | 0.00 | 0.00 | 0.00 | 69 | 1012.1 |
| 20260502204731 | 30 | 250 | 6.4 | 12.9 | 0.00 | 0.00 | 0.00 | 67 | 1012.0 |
| 20260502204228 | 31 | 256 | 1.6 | 6.4 | 0.00 | 0.00 | 0.00 | 66 | 1012.1 |
| 20260502203726 | 31 | 235 | 6.4 | 16.1 | 0.00 | 0.00 | 0.00 | 66 | 1012.3 |
| 20260502203224 | 31 | 237 | 4.8 | 8.0 | 0.00 | 0.00 | 0.00 | 67 | 1012.2 |
| 20260502202723 | 31 | 235 | 3.2 | 6.4 | 0.00 | 0.00 | 0.00 | 67 | 1012.3 |
| 20260502202222 | 31 | 265 | 4.8 | 11.3 | 0.00 | 0.00 | 0.00 | 67 | 1012.2 |
| 20260502201719 | 31 | 228 | 8.0 | 17.7 | 0.00 | 0.00 | 0.00 | 67 | 1012.2 |
| 20260502201216 | 31 | 238 | 3.2 | 9.7 | 0.00 | 0.00 | 0.00 | 66 | 1012.2 |
| 20260502200711 | 31 | 247 | 6.4 | 9.7 | 0.00 | 0.00 | 0.00 | 67 | 1012.4 |
| 20260502200208 | 31 | 254 | 4.8 | 9.7 | 0.00 | 0.00 | 0.00 | 67 | 1012.3 |
| 20260502195707 | 31 | 252 | 4.8 | 9.7 | 0.00 | 0.00 | 0.00 | 68 | 1012.4 |
| 20260502195203 | 31 | 259 | 4.8 | 9.7 | 0.00 | 0.00 | 0.00 | 68 | 1012.4 |
| 20260502194659 | 31 | 255 | 4.8 | 8.0 | 0.00 | 0.00 | 0.00 | 69 | 1012.4 |
| 20260502194156 | 31 | 249 | 4.8 | 9.7 | 0.00 | 0.00 | 0.00 | 69 | 1012.4 |
| 20260502193652 | 30 | 242 | 4.8 | 9.7 | 0.00 | 0.00 | 0.00 | 68 | 1012.2 |
| 20260502193150 | 30 | 248 | 8.0 | 14.5 | 0.00 | 0.00 | 0.00 | 68 | 1012.3 |
| 20260502192645 | 30 | 224 | 6.4 | 11.3 | 0.00 | 0.00 | 0.00 | 68 | 1012.3 |
| 20260502192143 | 31 | 242 | 3.2 | 4.8 | 0.00 | 0.00 | 0.00 | 70 | 1012.7 |
| 20260502191639 | 31 | 258 | 6.4 | 11.3 | 0.00 | 0.00 | 0.00 | 70 | 1012.7 |
| 20260502191137 | 31 | 250 | 8.0 | 14.5 | 0.00 | 0.00 | 0.00 | 70 | 1012.6 |
| 20260502190634 | 31 | 256 | 6.4 | 12.9 | 0.00 | 0.00 | 0.00 | 69 | 1012.7 |
| 20260502190132 | 31 | 226 | 6.4 | 9.7 | 0.00 | 0.00 | 0.00 | 71 | 1012.7 |
| 20260502185626 | 31 | 250 | 8.0 | 12.9 | 0.00 | 0.00 | 0.00 | 70 | 1012.8 |
| 20260502185123 | 30 | 250 | 4.8 | 6.4 | 0.00 | 0.00 | 0.00 | 71 | 1012.8 |
| 20260502184619 | 30 | 237 | 4.8 | 8.0 | 0.00 | 0.00 | 0.00 | 72 | 1012.9 |
| 20260502184115 | 30 | 250 | 8.0 | 12.9 | 0.00 | 0.00 | 0.00 | 72 | 1012.9 |
| 20260502183612 | 30 | 252 | 6.4 | 16.1 | 0.00 | 0.00 | 0.00 | 72 | 1013.0 |
| 20260502183108 | 30 | 249 | 9.7 | 17.7 | 0.00 | 0.00 | 0.00 | 73 | 1013.2 |
| 20260502182603 | 30 | 244 | 6.4 | 17.7 | 0.00 | 0.00 | 0.00 | 73 | 1013.4 |
| 20260502182059 | 30 | 258 | 3.2 | 9.7 | 0.00 | 0.00 | 0.00 | 72 | 1013.3 |
| 20260502181557 | 30 | 242 | 6.4 | 12.9 | 0.00 | 0.00 | 0.00 | 72 | 1013.4 |
| 20260502181055 | 30 | 242 | 8.0 | 14.5 | 0.00 | 0.00 | 0.00 | 73 | 1013.3 |
| 20260502180552 | 30 | 256 | 9.7 | 17.7 | 0.00 | 0.00 | 0.00 | 72 | 1013.4 |
| 20260502170511 | 31 | 232 | 6.4 | 12.9 | 0.00 | 0.00 | 0.00 | 73 | 1013.6 |
| 20260502163955 | 31 | 238 | 4.8 | 11.3 | 0.00 | 0.00 | 0.00 | 71 | 1013.6 |
| 20260502163450 | 31 | 231 | 8.0 | 17.7 | 0.00 | 0.00 | 0.00 | 71 | 1013.6 |
| 20260502162948 | 31 | 240 | 6.4 | 14.5 | 0.00 | 0.00 | 0.00 | 71 | 1013.3 |
| 20260502162445 | 31 | 245 | 3.2 | 9.7 | 0.00 | 0.00 | 0.00 | 70 | 1013.4 |
| 20260502161942 | 31 | 248 | 6.4 | 11.3 | 0.00 | 0.00 | 0.00 | 72 | 1013.5 |
| 20260502161438 | 31 | 216 | 4.8 | 11.3 | 0.00 | 0.00 | 0.00 | 71 | 1013.4 |
| 20260502160936 | 30 | 236 | 4.8 | 6.4 | 0.00 | 0.00 | 0.00 | 71 | 1013.5 |
| 20260502160434 | 30 | 238 | 8.0 | 11.3 | 0.00 | 0.00 | 0.00 | 71 | 1013.4 |
| 20260502151913 | 30 | 220 | 9.7 | 19.3 | 0.00 | 0.00 | 0.00 | 71 | 1013.1 |
| 20260502151409 | 30 | 224 | 11.3 | 17.7 | 0.00 | 0.00 | 0.00 | 71 | 1013.1 |
| 20260502150907 | 30 | 204 | 9.7 | 20.9 | 0.00 | 0.00 | 0.00 | 72 | 1013.0 |
| 20260502150403 | 29 | 196 | 9.7 | 14.5 | 0.00 | 0.00 | 0.00 | 71 | 1012.9 |
| 20260502130249 | 27 | 205 | 4.8 | 9.7 | 0.00 | 0.00 | 0.00 | 80 | 1012.6 |
| 20260502123734 | 26 | 156 | 8.0 | 11.3 | 0.00 | 0.00 | 0.00 | 83 | 1012.3 |
| 20260502123231 | 25 | 169 | 4.8 | 6.4 | 0.00 | 0.00 | 0.00 | 85 | 1012.3 |
| 20260502122728 | 25 | 185 | 4.8 | 6.4 | 0.00 | 0.00 | 0.00 | 86 | 1012.4 |
| 20260502122224 | 25 | 166 | 6.4 | 8.0 | 0.00 | 0.00 | 0.00 | 87 | 1012.3 |
| 20260502121723 | 25 | 152 | 4.8 | 8.0 | 0.00 | 0.00 | 0.00 | 88 | 1012.4 |
| 20260502121220 | 24 | 164 | 3.2 | 4.8 | 0.00 | 0.00 | 0.00 | 88 | 1012.3 |
| 20260502120716 | 23 | 168 | 6.4 | 8.0 | 0.00 | 0.00 | 0.00 | 88 | 1012.3 |
| 20260502120213 | 23 | 140 | 4.8 | 8.0 | 0.00 | 0.00 | 0.00 | 88 | 1012.3 |
| 20260502115711 | 23 | 155 | 6.4 | 9.7 | 0.00 | 0.00 | 0.00 | 89 | 1012.3 |
| 20260502115207 | 23 | 175 | 1.6 | 8.0 | 0.00 | 0.00 | 0.00 | 89 | 1012.3 |
| 20260502114703 | 23 | 148 | 4.8 | 6.4 | 0.00 | 0.00 | 0.00 | 90 | 1012.3 |
| 20260502114201 | 22 | 163 | 3.2 | 6.4 | 0.00 | 0.00 | 0.00 | 90 | 1012.2 |
| 20260502113658 | 22 | 155 | 4.8 | 6.4 | 0.00 | 0.00 | 0.00 | 91 | 1012.2 |
| 20260502113156 | 22 | 163 | 4.8 | 6.4 | 0.00 | 0.00 | 0.00 | 90 | 1012.3 |
| 20260502112653 | 22 | 191 | 1.6 | 6.4 | 0.00 | 0.00 | 0.00 | 91 | 1012.3 |
| 20260502112151 | 22 | 179 | 3.2 | 4.8 | 0.00 | 0.00 | 0.00 | 91 | 1012.4 |
| 20260502111648 | 22 | 159 | 3.2 | 3.2 | 0.00 | 0.00 | 0.00 | 91 | 1012.3 |
| 20260502111145 | 22 | 170 | 4.8 | 8.0 | 0.00 | 0.00 | 0.00 | 91 | 1012.3 |
| 20260502110643 | 22 | 146 | 3.2 | 4.8 | 0.00 | 0.00 | 0.00 | 91 | 1012.3 |
| 20260502110140 | 22 | 147 | 4.8 | 6.4 | 0.00 | 0.00 | 0.00 | 90 | 1012.4 |
| 20260502105637 | 21 | 171 | 4.8 | 6.4 | 0.00 | 0.00 | 0.00 | 90 | 1012.4 |
| 20260502105134 | 21 | 144 | 4.8 | 6.4 | 0.00 | 0.00 | 0.00 | 91 | 1012.3 |
| 20260502104631 | 21 | 180 | 3.2 | 4.8 | 0.00 | 0.00 | 0.00 | 90 | 1012.3 |
| 20260502104129 | 21 | 180 | 1.6 | 3.2 | 0.00 | 0.00 | 0.00 | 90 | 1012.2 |
| 20260502103626 | 21 | 180 | 0.0 | 0.0 | 0.00 | 0.00 | 0.00 | 89 | 1012.3 |
| 20260502103125 | 21 | 172 | 1.6 | 4.8 | 0.00 | 0.00 | 0.00 | 90 | 1012.4 |
| 20260502102621 | 21 | 151 | 0.0 | 1.6 | 0.00 | 0.00 | 0.00 | 90 | 1012.4 |
| 20260502102118 | 21 | 202 | 0.0 | 0.0 | 0.00 | 0.00 | 0.00 | 90 | 1012.4 |
| 20260502101616 | 21 | 202 | 0.0 | 0.0 | 0.00 | 0.00 | 0.00 | 89 | 1012.4 |
| 20260502101114 | 21 | 112 | 1.6 | 3.2 | 0.00 | 0.00 | 0.00 | 90 | 1012.5 |
| 20260502100612 | 21 | 109 | 1.6 | 3.2 | 0.00 | 0.00 | 0.00 | 89 | 1012.4 |
| 20260502100110 | 21 | 67 | 0.0 | 1.6 | 0.00 | 0.00 | 0.00 | 89 | 1012.3 |
| 20260502091044 | 21 | 168 | 3.2 | 4.8 | 0.00 | 0.00 | 0.00 | 89 | 1012.6 |
| 20260502090541 | 21 | 135 | 0.0 | 3.2 | 0.00 | 0.00 | 0.00 | 88 | 1012.6 |
| 20260502071435 | 21 | 225 | 0.0 | 0.0 | 0.00 | 0.00 | 0.00 | 89 | 1012.6 |
| 20260502070933 | 21 | 337 | 0.0 | 0.0 | 0.00 | 0.00 | 0.00 | 89 | 1012.6 |
| 20260502070431 | 21 | 337 | 0.0 | 0.0 | 0.00 | 0.00 | 0.00 | 88 | 1012.6 |
| 20260502065929 | 21 | 337 | 0.0 | 0.0 | 0.00 | 0.00 | 0.00 | 89 | 1012.6 |
| 20260502065428 | 21 | 337 | 0.0 | 0.0 | 0.00 | 0.00 | 0.00 | 88 | 1012.7 |
| 20260502064925 | 21 | 337 | 0.0 | 0.0 | 0.00 | 0.00 | 0.00 | 88 | 1012.7 |
| 20260502064423 | 21 | 337 | 0.0 | 0.0 | 0.00 | 0.00 | 0.00 | 87 | 1012.7 |
| 20260502063920 | 21 | 337 | 0.0 | 0.0 | 0.00 | 0.00 | 0.00 | 87 | 1012.7 |
| 20260502063417 | 21 | 337 | 0.0 | 0.0 | 0.00 | 0.00 | 0.00 | 87 | 1012.8 |
| 20260502062915 | 21 | 337 | 0.0 | 0.0 | 0.00 | 0.00 | 0.00 | 87 | 1012.9 |
| 20260502062412 | 21 | 337 | 0.0 | 0.0 | 0.00 | 0.00 | 0.00 | 87 | 1012.8 |
| 20260502061911 | 21 | 337 | 0.0 | 0.0 | 0.00 | 0.00 | 0.00 | 87 | 1012.9 |
| 20260502061408 | 21 | 337 | 0.0 | 0.0 | 0.00 | 0.00 | 0.00 | 86 | 1012.9 |
| 20260502060904 | 21 | 337 | 0.0 | 0.0 | 0.00 | 0.00 | 0.00 | 86 | 1012.9 |
| 20260502060404 | 21 | 337 | 0.0 | 0.0 | 0.00 | 0.00 | 0.00 | 86 | 1012.9 |
| 20260502055902 | 21 | 337 | 0.0 | 0.0 | 0.00 | 0.00 | 0.00 | 86 | 1012.9 |
| 20260502055400 | 21 | 337 | 0.0 | 0.0 | 0.00 | 0.00 | 0.00 | 85 | 1013.1 |
| 20260502054900 | 21 | 337 | 0.0 | 0.0 | 0.00 | 0.00 | 0.00 | 84 | 1013.1 |
| 20260502054356 | 22 | 337 | 0.0 | 0.0 | 0.00 | 0.00 | 0.00 | 85 | 1013.1 |
| 20260502053854 | 22 | 337 | 0.0 | 0.0 | 0.00 | 0.00 | 0.00 | 84 | 1013.2 |
| 20260502053351 | 22 | 337 | 0.0 | 0.0 | 0.00 | 0.00 | 0.00 | 83 | 1013.2 |
| 20260502052848 | 22 | 337 | 0.0 | 0.0 | 0.00 | 0.00 | 0.00 | 82 | 1013.2 |
| 20260502052347 | 22 | 315 | 0.0 | 0.0 | 0.00 | 0.00 | 0.00 | 81 | 1013.2 |
| 20260502051844 | 23 | 315 | 0.0 | 0.0 | 0.00 | 0.00 | 0.00 | 80 | 1013.4 |
| 20260502051343 | 23 | 315 | 0.0 | 0.0 | 0.00 | 0.00 | 0.00 | 79 | 1013.4 |
| 20260502050839 | 23 | 292 | 0.0 | 0.0 | 0.00 | 0.00 | 0.00 | 79 | 1013.4 |
| 20260502050335 | 23 | 270 | 0.0 | 0.0 | 0.00 | 0.00 | 0.00 | 78 | 1013.4 |
| 20260502045832 | 23 | 247 | 0.0 | 0.0 | 0.00 | 0.00 | 0.00 | 79 | 1013.5 |
| 20260502045329 | 23 | 247 | 0.0 | 0.0 | 0.00 | 0.00 | 0.00 | 80 | 1013.5 |
| 20260502044826 | 22 | 263 | 0.0 | 3.2 | 0.00 | 0.00 | 0.00 | 82 | 1013.6 |
| 20260502044322 | 22 | 258 | 1.6 | 4.8 | 0.00 | 0.00 | 0.00 | 83 | 1013.6 |
| 20260502043820 | 22 | 315 | 0.0 | 0.0 | 0.00 | 0.00 | 0.00 | 82 | 1013.6 |
| 20260502043317 | 22 | 292 | 0.0 | 0.0 | 0.00 | 0.00 | 0.00 | 81 | 1013.6 |
| 20260502042816 | 22 | 270 | 0.0 | 0.0 | 0.00 | 0.00 | 0.00 | 81 | 1013.5 |
| 20260502042314 | 22 | 270 | 0.0 | 0.0 | 0.00 | 0.00 | 0.00 | 81 | 1013.5 |
| 20260502041811 | 22 | 270 | 0.0 | 0.0 | 0.00 | 0.00 | 0.00 | 80 | 1013.4 |
| 20260502041309 | 22 | 270 | 0.0 | 0.0 | 0.00 | 0.00 | 0.00 | 80 | 1013.5 |
| 20260502040805 | 23 | 270 | 0.0 | 0.0 | 0.00 | 0.00 | 0.00 | 79 | 1013.5 |
| 20260502040302 | 23 | 270 | 0.0 | 0.0 | 0.00 | 0.00 | 0.00 | 78 | 1013.5 |
| 20260502035758 | 23 | 270 | 0.0 | 0.0 | 0.00 | 0.00 | 0.00 | 77 | 1013.5 |
| 20260502035255 | 23 | 270 | 0.0 | 0.0 | 0.00 | 0.00 | 0.00 | 77 | 1013.4 |
| 20260502034752 | 23 | 270 | 0.0 | 0.0 | 0.00 | 0.00 | 0.00 | 78 | 1013.5 |